Archival Weather

Chicago O'Hare International

Chicago, Illinois (KORD)

Report from: Tuesday, September 19, 2023 7:51 AM CDT
Current time: Friday, April 19, 2024 3:50 AM CDT

Current weather – Weather history – Daily summaries
Weather forecast

Present weatherLight rain
Temperature15.6°C (60.1°F)
Dew point11.7°C (53.1°F)
Winds 6 kts (3.1 m/s, 6.9 mph) Southwest (220°)
Visibility10 mi. (16.1 km)
Clouds Few clouds 7,000 ft. (2,134 m)
Ceiling: Overcast 10,000 ft. (3,048 m)
Altimeter30.05 in.Hg (1018 mB)
PrecipitiationTrace
Precip. events Rain began 12:42 PM
Relative humidity78 %
Density altitude124 ft. (38 m)
Sea-level pressure101.7 kPa (1017 mB, 30.04 in.Hg)
Remarks Automated weather observing station with precipitation discriminator
Flight conditions Visual Meteorological Conditions
Raw dataKORD 191251Z 22006KT 10SM -RA FEW070 OVC100 16/12 A3005 RMK AO2 RAB42 SLP174 P0000 T01560117
An error has occurred. This application may no longer respond until reloaded. Reload 🗙